createdAt,value
2023-01-08T00:01:18.875Z,3.95
2023-01-08T00:03:46.730Z,4.20
2023-01-08T00:06:16.581Z,3.78
2023-01-08T00:08:47.158Z,4.25
2023-01-08T00:11:14.994Z,3.72
2023-01-08T00:13:44.668Z,3.58
2023-01-08T00:16:14.882Z,4.03
2023-01-08T00:18:46.049Z,3.90
2023-01-08T00:21:13.803Z,4.03
2023-01-08T00:23:41.131Z,3.90
2023-01-08T00:26:13.808Z,4.28
2023-01-08T00:28:41.465Z,4.07
2023-01-08T00:31:12.735Z,3.55
2023-01-08T00:33:41.135Z,3.63
2023-01-08T00:36:17.481Z,3.45
2023-01-08T00:38:46.402Z,3.90
2023-01-08T00:41:17.131Z,3.05
2023-01-08T00:43:44.646Z,3.30
2023-01-08T00:46:14.314Z,3.28
2023-01-08T00:48:41.571Z,3.30
2023-01-08T00:51:11.322Z,3.30
2023-01-08T00:53:38.706Z,2.97
2023-01-08T00:56:08.538Z,3.28
2023-01-08T00:58:36.281Z,3.42
2023-01-08T01:01:10.000Z,3.47
2023-01-08T01:03:38.173Z,3.88
2023-01-08T01:06:05.847Z,3.60
2023-01-08T01:08:34.630Z,3.40
2023-01-08T01:11:25.250Z,2.95
2023-01-08T01:13:54.738Z,3.00
2023-01-08T01:16:22.918Z,2.90
2023-01-08T01:18:52.248Z,3.13
2023-01-08T01:21:24.381Z,3.60
2023-01-08T01:24:02.620Z,3.10
2023-01-08T01:26:32.976Z,3.10
2023-01-08T01:29:00.941Z,3.22
2023-01-08T01:31:30.414Z,3.28
2023-01-08T01:33:58.330Z,3.03
2023-01-08T01:36:26.584Z,3.13
2023-01-08T01:38:58.850Z,3.22
2023-01-08T01:41:27.894Z,3.30
2023-01-08T01:43:59.366Z,2.90
2023-01-08T01:46:40.530Z,2.97
2023-01-08T01:49:18.050Z,2.67
2023-01-08T01:51:53.471Z,2.85
2023-01-08T01:54:23.685Z,3.10
2023-01-08T01:56:50.949Z,3.20
2023-01-08T01:59:18.380Z,3.15
2023-01-08T02:01:46.152Z,2.75
2023-01-08T02:04:14.335Z,3.22
2023-01-08T02:07:00.814Z,3.03
2023-01-08T02:09:47.825Z,3.05
2023-01-08T02:12:26.005Z,2.70
2023-01-08T02:15:11.477Z,3.05
2023-01-08T02:17:48.687Z,2.90
2023-01-08T02:20:33.551Z,3.20
2023-01-08T02:23:14.357Z,2.88
2023-01-08T02:26:15.606Z,3.05
2023-01-08T02:28:59.743Z,2.83
2023-01-08T02:31:29.855Z,3.05
2023-01-08T02:34:00.123Z,2.88
2023-01-08T02:36:44.626Z,3.03
2023-01-08T02:39:23.800Z,2.83
2023-01-08T02:42:09.680Z,2.55
2023-01-08T02:45:03.695Z,2.50
2023-01-08T02:47:47.046Z,3.00
2023-01-08T02:50:26.077Z,2.90
2023-01-08T02:53:03.876Z,2.88
2023-01-08T02:55:34.891Z,2.45
2023-01-08T02:58:04.428Z,2.70
2023-01-08T03:00:32.544Z,2.92
2023-01-08T03:03:22.574Z,2.88
2023-01-08T03:05:55.199Z,2.80
2023-01-08T03:08:23.883Z,2.95
2023-01-08T03:11:06.476Z,2.80
2023-01-08T03:13:45.799Z,2.47
2023-01-08T03:16:18.969Z,3.15
2023-01-08T03:19:07.280Z,2.80
2023-01-08T03:21:38.591Z,2.58
2023-01-08T03:24:07.261Z,2.55
2023-01-08T03:26:41.594Z,3.00
2023-01-08T03:29:14.448Z,2.85
2023-01-08T03:31:44.004Z,3.08
2023-01-08T03:34:16.310Z,2.40
2023-01-08T03:36:48.450Z,2.83
2023-01-08T03:39:26.461Z,2.65
2023-01-08T03:41:58.242Z,3.00
2023-01-08T03:44:26.046Z,2.65
2023-01-08T03:46:56.717Z,3.05
2023-01-08T03:49:29.546Z,2.72
2023-01-08T03:51:57.052Z,2.97
2023-01-08T03:54:30.545Z,2.50
2023-01-08T03:59:27.641Z,2.72
2023-01-08T04:01:55.141Z,2.85
2023-01-08T04:04:22.558Z,2.40
2023-01-08T04:06:52.859Z,2.75
2023-01-08T04:09:20.373Z,2.50
2023-01-08T04:11:47.761Z,2.55
2023-01-08T04:14:18.849Z,2.38
2023-01-08T04:16:48.619Z,2.63
2023-01-08T04:19:16.342Z,2.40
2023-01-08T04:21:45.795Z,2.65
2023-01-08T04:24:15.639Z,2.50
2023-01-08T04:26:42.819Z,2.60
2023-01-08T04:29:12.201Z,2.60
2023-01-08T04:31:42.122Z,2.67
2023-01-08T04:34:10.239Z,2.50
2023-01-08T04:36:39.688Z,2.70
2023-01-08T04:39:07.991Z,2.50
2023-01-08T04:41:35.154Z,2.58
2023-01-08T04:44:03.065Z,2.67
2023-01-08T04:46:30.252Z,2.30
2023-01-08T04:48:57.537Z,2.20
2023-01-08T04:51:26.991Z,2.22
2023-01-08T04:53:54.353Z,2.33
2023-01-08T04:56:21.541Z,2.65
2023-01-08T04:58:48.842Z,2.40
2023-01-08T05:01:23.924Z,2.40
2023-01-08T05:04:02.473Z,2.30
2023-01-08T05:06:31.037Z,2.22
2023-01-08T05:09:03.211Z,2.38
2023-01-08T05:11:30.342Z,2.60
2023-01-08T05:13:58.133Z,2.50
2023-01-08T05:16:25.342Z,2.45
2023-01-08T05:18:52.513Z,2.10
2023-01-08T05:21:19.825Z,2.20
2023-01-08T05:23:48.292Z,2.22
2023-01-08T05:26:16.804Z,2.28
2023-01-08T05:28:44.284Z,2.30
2023-01-08T05:31:11.739Z,2.47
2023-01-08T05:33:39.611Z,2.17
2023-01-08T05:36:08.799Z,2.22
2023-01-08T05:38:36.564Z,2.08
2023-01-08T05:41:07.452Z,1.95
2023-01-08T05:43:35.312Z,1.92
2023-01-08T05:46:05.884Z,2.10
2023-01-08T05:48:35.315Z,2.20
2023-01-08T05:51:04.132Z,1.90
2023-01-08T05:53:32.929Z,1.98
2023-01-08T05:56:06.628Z,2.28
2023-01-08T05:58:35.099Z,2.20
2023-01-08T06:01:15.789Z,2.00
2023-01-08T06:03:45.316Z,1.98
2023-01-08T06:06:13.680Z,1.95
2023-01-08T06:08:43.781Z,2.15
2023-01-08T06:11:12.074Z,2.00
2023-01-08T06:13:43.709Z,2.13
2023-01-08T06:16:11.362Z,1.90
2023-01-08T06:18:39.235Z,1.85
2023-01-08T06:21:13.294Z,1.90
2023-01-08T06:23:40.964Z,2.03
2023-01-08T06:26:08.363Z,1.70
2023-01-08T06:28:35.932Z,1.75
2023-01-08T06:31:07.515Z,1.67
2023-01-08T06:33:35.020Z,1.83
2023-01-08T06:36:05.631Z,2.03
2023-01-08T06:38:34.475Z,1.90
2023-01-08T06:41:06.301Z,1.80
2023-01-08T06:43:36.341Z,1.85
2023-01-08T06:46:05.285Z,1.80
2023-01-08T06:48:32.779Z,1.88
2023-01-08T06:51:01.343Z,1.80
2023-01-08T06:53:28.678Z,1.70
2023-01-08T06:55:58.858Z,1.83
2023-01-08T06:58:27.619Z,1.70
2023-01-08T07:00:55.036Z,1.85
2023-01-08T07:03:24.895Z,1.73
2023-01-08T07:05:52.125Z,1.60
2023-01-08T07:08:19.695Z,1.75
2023-01-08T07:10:46.838Z,1.45
2023-01-08T07:13:17.046Z,1.55
2023-01-08T07:15:44.442Z,1.40
2023-01-08T07:18:12.634Z,1.55
2023-01-08T07:20:40.404Z,1.27
2023-01-08T07:23:12.004Z,1.48
2023-01-08T07:25:39.737Z,1.60
2023-01-08T07:28:12.933Z,1.40
2023-01-08T07:30:40.313Z,1.70
2023-01-08T07:33:08.018Z,1.48
2023-01-08T07:35:39.050Z,1.42
2023-01-08T07:38:08.781Z,1.40
2023-01-08T09:58:52.936Z,1.25
2023-01-08T10:01:24.079Z,1.20
2023-01-08T10:03:58.255Z,1.10
2023-01-08T10:06:25.629Z,1.30
2023-01-08T10:08:55.536Z,0.95
2023-01-08T10:11:25.964Z,1.30
2023-01-08T10:13:55.150Z,1.25
2023-01-08T10:16:30.486Z,1.50
2023-01-08T10:19:00.905Z,1.25
2023-01-08T10:21:36.261Z,1.40
2023-01-08T10:24:03.832Z,1.40
2023-01-08T10:26:36.393Z,1.17
2023-01-08T10:29:15.079Z,1.27
2023-01-08T10:31:47.354Z,1.55
2023-01-08T10:34:31.396Z,1.60
2023-01-08T10:36:58.664Z,1.55
2023-01-08T10:39:30.849Z,1.40
2023-01-08T10:42:06.473Z,1.52
2023-01-08T10:44:33.982Z,1.73
2023-01-08T10:47:01.792Z,1.60
2023-01-08T10:49:36.869Z,1.98
2023-01-08T10:52:04.173Z,1.63
2023-01-08T10:54:36.228Z,2.00
2023-01-08T10:57:19.866Z,1.80
2023-01-08T10:59:47.287Z,1.80
2023-01-08T11:14:35.035Z,1.60
2023-01-08T11:17:10.194Z,1.95
2023-01-08T11:19:39.826Z,1.60
2023-01-08T11:22:20.073Z,2.15
2023-01-08T11:24:51.356Z,1.80
2023-01-08T11:27:36.544Z,1.98
2023-01-08T11:30:21.018Z,1.80
2023-01-08T11:32:54.877Z,1.80
2023-01-08T11:35:36.211Z,1.70
2023-01-08T11:38:08.242Z,1.80
2023-01-08T11:40:41.514Z,1.83
2023-01-08T11:43:26.285Z,1.55
2023-01-08T11:46:11.701Z,1.60
2023-01-08T11:49:09.046Z,1.60
2023-01-08T11:52:08.086Z,1.80
2023-01-08T11:54:57.078Z,2.22
2023-01-08T16:00:18.494Z,1.45
2023-01-08T16:02:50.697Z,1.58
2023-01-08T16:05:19.951Z,1.48
2023-01-08T16:07:47.690Z,1.40
2023-01-08T16:10:16.050Z,1.45
2023-01-08T16:12:43.858Z,1.55
2023-01-08T16:15:12.124Z,1.30
2023-01-08T16:17:41.278Z,1.20
2023-01-08T16:20:10.654Z,1.25
2023-01-08T16:22:37.801Z,1.33
2023-01-08T16:25:05.665Z,1.50
2023-01-08T16:27:34.213Z,1.42
2023-01-08T16:30:01.645Z,1.30
2023-01-08T16:32:29.497Z,1.42
2023-01-08T16:34:57.841Z,1.40
2023-01-08T16:37:27.671Z,1.65
2023-01-08T16:39:54.880Z,1.48
2023-01-08T16:42:22.586Z,1.40
2023-01-08T16:44:49.859Z,1.60
2023-01-08T16:47:19.287Z,1.50
2023-01-08T16:49:50.246Z,1.70
2023-01-08T16:52:17.767Z,1.70
2023-01-08T16:54:45.787Z,1.50
2023-01-08T16:57:13.287Z,1.77
2023-01-08T16:59:40.432Z,1.98
2023-01-08T17:02:09.886Z,1.85
2023-01-08T17:04:37.400Z,1.70
2023-01-08T17:07:07.472Z,1.65
2023-01-08T17:09:36.867Z,1.75
2023-01-08T17:12:04.383Z,1.77
2023-01-08T17:14:31.851Z,1.90
2023-01-08T17:17:01.361Z,1.85
2023-01-08T17:19:28.794Z,1.83
2023-01-08T17:21:55.931Z,1.75
2023-01-08T17:24:23.127Z,2.05
2023-01-08T17:26:50.625Z,1.80
2023-01-08T17:29:20.028Z,2.67
2023-01-08T17:31:49.420Z,1.80
2023-01-08T17:34:18.922Z,2.10
2023-01-08T17:36:46.246Z,1.80
2023-01-08T17:39:13.503Z,1.90
2023-01-08T17:41:59.660Z,1.60
2023-01-08T17:44:27.193Z,1.60
2023-01-08T17:46:56.651Z,1.77
2023-01-08T17:49:24.147Z,1.60
2023-01-08T17:51:53.693Z,1.50
2023-01-08T17:54:24.114Z,1.65
2023-01-08T17:56:54.042Z,2.10
2023-01-08T17:59:21.353Z,1.58
2023-01-08T18:01:52.752Z,1.88
2023-01-08T18:04:20.638Z,1.80
2023-01-08T18:06:47.855Z,1.65
2023-01-08T18:09:15.237Z,1.75
2023-01-08T18:11:43.237Z,1.60
2023-01-08T18:14:12.883Z,1.85
2023-01-08T18:16:45.780Z,1.90
2023-01-08T18:21:41.109Z,1.95
2023-01-08T18:24:08.741Z,2.00
2023-01-08T18:26:36.688Z,1.90
2023-01-08T18:29:06.300Z,1.75
2023-01-08T18:31:33.887Z,1.92
2023-01-08T18:34:03.931Z,1.60
2023-01-08T18:36:31.151Z,1.70
2023-01-08T18:39:01.742Z,1.70
2023-01-08T18:41:47.987Z,2.08
2023-01-08T18:44:15.233Z,1.90
2023-01-08T18:46:48.040Z,1.70
2023-01-08T18:49:15.970Z,1.70
2023-01-08T18:51:44.373Z,1.73
2023-01-08T18:54:12.919Z,1.50
2023-01-08T18:56:43.682Z,1.80
2023-01-08T18:59:13.176Z,1.92
2023-01-08T19:01:41.531Z,1.77
2023-01-08T19:04:18.840Z,1.60
2023-01-08T19:06:46.687Z,1.80
2023-01-08T19:09:15.650Z,1.80
2023-01-08T19:11:43.153Z,1.73
2023-01-08T19:14:12.632Z,1.70
2023-01-08T19:16:40.966Z,1.83
2023-01-08T19:19:08.391Z,1.65
2023-01-08T19:21:38.283Z,1.70
2023-01-08T19:24:05.815Z,1.80
2023-01-08T19:26:41.054Z,1.88
2023-01-08T19:29:08.765Z,2.00
2023-01-08T19:31:38.156Z,1.98
2023-01-08T19:34:05.700Z,1.83
2023-01-08T19:36:33.997Z,1.73
2023-01-08T19:39:01.153Z,1.90
2023-01-08T19:41:47.130Z,1.67
2023-01-08T19:44:14.283Z,1.80
2023-01-08T19:46:41.611Z,1.80
2023-01-08T19:49:09.202Z,1.90
2023-01-08T19:51:36.744Z,1.70
2023-01-08T19:54:06.684Z,1.73
2023-01-08T19:56:36.419Z,1.80
2023-01-08T19:59:03.905Z,1.60
2023-01-08T20:01:33.571Z,1.65
2023-01-08T20:04:04.100Z,1.40
2023-01-08T20:06:32.493Z,1.70
2023-01-08T20:08:59.999Z,1.70
2023-01-08T20:11:30.060Z,1.70
2023-01-08T20:14:02.900Z,1.70
2023-01-08T20:16:30.295Z,1.70
2023-01-08T20:19:03.380Z,1.60
2023-01-08T20:24:06.770Z,2.10
2023-01-08T20:26:37.184Z,2.15
2023-01-08T20:29:05.409Z,2.53
2023-01-08T20:31:35.076Z,2.33
2023-01-08T20:34:09.192Z,2.60
2023-01-08T20:36:37.493Z,2.80
2023-01-08T20:39:11.042Z,3.10
2023-01-08T20:41:46.524Z,2.97
2023-01-08T20:44:28.815Z,2.90
2023-01-08T20:46:56.439Z,3.75
2023-01-08T20:49:27.027Z,3.00
2023-01-08T20:51:59.591Z,3.17
2023-01-08T20:54:31.492Z,2.95
2023-01-08T20:57:00.371Z,3.10
2023-01-08T20:59:28.857Z,3.00
2023-01-08T21:01:57.118Z,3.33
2023-01-08T21:04:24.969Z,3.53
2023-01-08T21:06:54.927Z,3.45
2023-01-08T21:09:22.360Z,3.17
2023-01-08T21:11:50.721Z,3.28
2023-01-08T21:14:18.121Z,3.83
2023-01-08T21:16:47.832Z,3.33
2023-01-08T21:19:15.463Z,3.13
2023-01-08T21:21:42.921Z,3.60
2023-01-08T21:24:13.145Z,3.55
2023-01-08T21:26:44.163Z,4.03
2023-01-08T21:29:11.798Z,3.55
2023-01-08T21:31:40.266Z,3.53
2023-01-08T21:34:11.477Z,3.53
2023-01-08T21:36:39.334Z,3.55
2023-01-08T21:39:06.956Z,3.45
2023-01-08T21:41:55.226Z,3.55
2023-01-08T21:44:43.435Z,3.70
2023-01-08T21:47:21.059Z,3.83
2023-01-08T21:49:56.288Z,3.70
2023-01-08T21:52:42.540Z,3.97
2023-01-08T21:55:09.798Z,3.50
2023-01-08T21:57:42.273Z,3.30
2023-01-08T22:00:14.505Z,3.63
2023-01-08T22:02:42.116Z,3.63
2023-01-08T22:05:11.528Z,3.13
2023-01-08T22:07:38.936Z,3.75
2023-01-08T22:10:06.811Z,3.00
2023-01-08T22:12:36.485Z,2.90
2023-01-08T22:15:06.509Z,3.10
2023-01-08T22:17:33.727Z,3.42
2023-01-08T22:20:01.893Z,3.22
2023-01-08T22:22:29.308Z,3.22
2023-01-08T22:24:56.666Z,3.50
2023-01-08T22:27:24.203Z,3.25
2023-01-08T22:29:54.531Z,3.33
2023-01-08T22:32:24.134Z,3.72
2023-01-08T22:34:56.067Z,3.05
2023-01-08T22:37:23.553Z,3.25
2023-01-08T22:39:50.831Z,3.33
2023-01-08T22:42:20.392Z,3.03
2023-01-08T22:44:49.188Z,3.30
2023-01-08T22:47:16.314Z,3.35
2023-01-08T22:49:43.660Z,3.20
2023-01-08T22:52:12.204Z,3.35
2023-01-08T22:54:42.142Z,3.20
2023-01-08T22:57:10.461Z,3.15
2023-01-08T22:59:37.667Z,3.25
2023-01-08T23:02:05.179Z,3.20
2023-01-08T23:04:32.436Z,2.97
2023-01-08T23:07:01.863Z,2.95
2023-01-08T23:09:31.715Z,2.70
2023-01-08T23:11:58.820Z,2.90
2023-01-08T23:14:26.178Z,3.10
2023-01-08T23:16:53.419Z,2.92
2023-01-08T23:19:20.763Z,2.83
2023-01-08T23:21:51.137Z,2.95
2023-01-08T23:24:18.346Z,2.85
2023-01-08T23:26:45.672Z,2.70
2023-01-08T23:29:12.802Z,2.58
2023-01-08T23:31:44.139Z,3.00
2023-01-08T23:34:13.770Z,2.67
2023-01-08T23:36:42.810Z,2.67
2023-01-08T23:39:13.238Z,2.72
2023-01-08T23:41:43.712Z,2.58
2023-01-08T23:44:13.924Z,2.75
2023-01-08T23:46:43.783Z,2.78
2023-01-08T23:49:11.911Z,2.50
2023-01-08T23:51:42.125Z,3.00
2023-01-08T23:54:10.990Z,2.70
2023-01-08T23:56:41.258Z,2.35
2023-01-08T23:59:08.555Z,2.50
